Ambler, Alaska
Current Conditions -  °F | °C
As of 8:36 PM on Wednesday 22 Oct 2014 (Local Time) from PAFM Reporting Station
Overcast Overcast  
Wind Chill: -4°   Ceiling: 8500
Heat Index: -4°   Visibility: 10mi
Dew Point: -10°   Wind: 0mph
Humidity: 64%   Direction: NA
Pressure: 29.83"   Gusts: NA
Location:  67.09°N, 157.85°W
Report Text: PAFM 230436Z AUTO 00000KT 10SM OVC085 M04/M10 A2983 RMK AO1
Loading
Personal Weather Stations






























Interactive Weather Map
Tropical Storm Tracking
New forecast layout! Learn more

10-Day Weather Forecast

Advertisements
Track Severe Weather on mobile